sensor_id;sensor_type;location;lat;lon;timestamp;temperature;humidity
70149;DHT22;57514;52.164;5.282;2022-09-09T00:04:19;16.80;96.80
70149;DHT22;57514;52.164;5.282;2022-09-09T00:07:13;15.50;89.70
70149;DHT22;57514;52.164;5.282;2022-09-09T00:09:47;15.50;89.80
70149;DHT22;57514;52.164;5.282;2022-09-09T00:15:13;15.50;89.70
70149;DHT22;57514;52.164;5.282;2022-09-09T00:17:52;15.50;89.70
70149;DHT22;57514;52.164;5.282;2022-09-09T00:20:48;15.40;90.20
70149;DHT22;57514;52.164;5.282;2022-09-09T00:23:25;15.40;90.00
70149;DHT22;57514;52.164;5.282;2022-09-09T00:26:09;15.50;89.90
70149;DHT22;57514;52.164;5.282;2022-09-09T00:31:35;15.40;90.50
70149;DHT22;57514;52.164;5.282;2022-09-09T00:34:13;14.00;91.40
70149;DHT22;57514;52.164;5.282;2022-09-09T00:36:41;15.40;90.80
70149;DHT22;57514;52.164;5.282;2022-09-09T00:39:32;16.70;92.00
70149;DHT22;57514;52.164;5.282;2022-09-09T00:42:17;15.80;96.90
70149;DHT22;57514;52.164;5.282;2022-09-09T00:47:51;15.20;90.50
70149;DHT22;57514;52.164;5.282;2022-09-09T00:56:52;16.40;97.10
70149;DHT22;57514;52.164;5.282;2022-09-09T01:04:45;14.30;93.70
70149;DHT22;57514;52.164;5.282;2022-09-09T01:07:17;15.10;91.30
70149;DHT22;57514;52.164;5.282;2022-09-09T01:09:58;14.00;97.00
70149;DHT22;57514;52.164;5.282;2022-09-09T01:15:12;14.30;90.90
70149;DHT22;57514;52.164;5.282;2022-09-09T01:17:58;14.50;97.00
70149;DHT22;57514;52.164;5.282;2022-09-09T01:20:37;14.90;91.10
70149;DHT22;57514;52.164;5.282;2022-09-09T01:28:31;14.40;93.80
70149;DHT22;57514;52.164;5.282;2022-09-09T01:31:06;15.00;91.20
70149;DHT22;57514;52.164;5.282;2022-09-09T01:36:12;14.90;91.20
70149;DHT22;57514;52.164;5.282;2022-09-09T01:43:48;13.90;97.10
70149;DHT22;57514;52.164;5.282;2022-09-09T01:46:16;15.20;91.40
70149;DHT22;57514;52.164;5.282;2022-09-09T01:48:44;15.50;93.80
70149;DHT22;57514;52.164;5.282;2022-09-09T01:53:39;16.00;92.40
70149;DHT22;57514;52.164;5.282;2022-09-09T01:59:10;14.70;90.60
70149;DHT22;57514;52.164;5.282;2022-09-09T02:09:56;14.90;91.40
70149;DHT22;57514;52.164;5.282;2022-09-09T02:12:25;15.30;93.80
70149;DHT22;57514;52.164;5.282;2022-09-09T02:15:01;14.50;91.40
70149;DHT22;57514;52.164;5.282;2022-09-09T02:17:38;14.70;91.40
70149;DHT22;57514;52.164;5.282;2022-09-09T02:20:13;14.60;91.50
70149;DHT22;57514;52.164;5.282;2022-09-09T02:25:25;14.80;97.00
70149;DHT22;57514;52.164;5.282;2022-09-09T02:30:29;14.60;91.50
70149;DHT22;57514;52.164;5.282;2022-09-09T02:32:58;14.60;91.50
70149;DHT22;57514;52.164;5.282;2022-09-09T02:38:10;14.60;91.50
70149;DHT22;57514;52.164;5.282;2022-09-09T02:40:48;13.90;94.20
70149;DHT22;57514;52.164;5.282;2022-09-09T02:43:15;14.70;91.40
70149;DHT22;57514;52.164;5.282;2022-09-09T02:45:51;14.80;91.80
70149;DHT22;57514;52.164;5.282;2022-09-09T02:48:43;14.60;90.60
70149;DHT22;57514;52.164;5.282;2022-09-09T02:54:20;13.40;91.10
70149;DHT22;57514;52.164;5.282;2022-09-09T02:56:52;15.70;91.60
70149;DHT22;57514;52.164;5.282;2022-09-09T02:59:31;14.70;97.60
70149;DHT22;57514;52.164;5.282;2022-09-09T03:11:53;14.80;93.30
70149;DHT22;57514;52.164;5.282;2022-09-09T03:16:52;14.80;97.70
70149;DHT22;57514;52.164;5.282;2022-09-09T03:21:47;14.60;91.20
70149;DHT22;57514;52.164;5.282;2022-09-09T03:26:41;14.50;97.60
70149;DHT22;57514;52.164;5.282;2022-09-09T03:34:09;14.50;91.00
70149;DHT22;57514;52.164;5.282;2022-09-09T03:44:00;14.40;96.30
70149;DHT22;57514;52.164;5.282;2022-09-09T03:48:58;13.40;94.60
70149;DHT22;57514;52.164;5.282;2022-09-09T04:01:17;14.30;94.80
70149;DHT22;57514;52.164;5.282;2022-09-09T04:16:11;14.50;91.20
70149;DHT22;57514;52.164;5.282;2022-09-09T04:21:09;14.50;91.40
70149;DHT22;57514;52.164;5.282;2022-09-09T04:23:36;14.10;97.50
70149;DHT22;57514;52.164;5.282;2022-09-09T04:28:34;13.20;97.30
70149;DHT22;57514;52.164;5.282;2022-09-09T04:31:05;13.10;93.20
70149;DHT22;57514;52.164;5.282;2022-09-09T04:38:34;15.60;97.90
70149;DHT22;57514;52.164;5.282;2022-09-09T04:45:59;15.80;94.70
70149;DHT22;57514;52.164;5.282;2022-09-09T04:48:26;14.50;94.10
70149;DHT22;57514;52.164;5.282;2022-09-09T04:53:26;14.60;91.00
70149;DHT22;57514;52.164;5.282;2022-09-09T04:58:29;15.40;97.70
70149;DHT22;57514;52.164;5.282;2022-09-09T05:13:26;14.60;91.40
70149;DHT22;57514;52.164;5.282;2022-09-09T05:25:55;14.70;91.90
70149;DHT22;57514;52.164;5.282;2022-09-09T05:31:01;14.70;91.40
70149;DHT22;57514;52.164;5.282;2022-09-09T05:36:02;14.70;91.60
70149;DHT22;57514;52.164;5.282;2022-09-09T05:38:30;14.60;91.50
70149;DHT22;57514;52.164;5.282;2022-09-09T05:43:28;14.80;91.70
70149;DHT22;57514;52.164;5.282;2022-09-09T05:53:23;15.90;96.80
70149;DHT22;57514;52.164;5.282;2022-09-09T05:58:19;14.00;94.50
70149;DHT22;57514;52.164;5.282;2022-09-09T06:03:13;14.80;99.50
70149;DHT22;57514;52.164;5.282;2022-09-09T06:05:41;16.50;95.40
70149;DHT22;57514;52.164;5.282;2022-09-09T06:10:34;15.70;98.50
70149;DHT22;57514;52.164;5.282;2022-09-09T06:13:01;15.90;97.40
70149;DHT22;57514;52.164;5.282;2022-09-09T06:22:52;18.20;95.10
70149;DHT22;57514;52.164;5.282;2022-09-09T06:27:48;16.80;90.00
70149;DHT22;57514;52.164;5.282;2022-09-09T06:30:16;16.70;94.20
70149;DHT22;57514;52.164;5.282;2022-09-09T06:40:08;20.30;84.70
70149;DHT22;57514;52.164;5.282;2022-09-09T06:45:21;18.20;89.80
70149;DHT22;57514;52.164;5.282;2022-09-09T06:47:55;18.50;91.30
70149;DHT22;57514;52.164;5.282;2022-09-09T06:50:22;18.10;91.60
70149;DHT22;57514;52.164;5.282;2022-09-09T06:55:17;19.20;87.80
70149;DHT22;57514;52.164;5.282;2022-09-09T06:57:44;20.50;90.90
70149;DHT22;57514;52.164;5.282;2022-09-09T07:00:18;19.00;93.70
70149;DHT22;57514;52.164;5.282;2022-09-09T07:05:13;20.10;80.20
70149;DHT22;57514;52.164;5.282;2022-09-09T07:15:09;21.00;83.50
70149;DHT22;57514;52.164;5.282;2022-09-09T07:17:38;22.30;84.70
70149;DHT22;57514;52.164;5.282;2022-09-09T07:20:05;20.30;73.70
70149;DHT22;57514;52.164;5.282;2022-09-09T07:22:32;20.60;85.40
70149;DHT22;57514;52.164;5.282;2022-09-09T07:27:28;20.40;74.40
70149;DHT22;57514;52.164;5.282;2022-09-09T07:29:55;20.00;81.50
70149;DHT22;57514;52.164;5.282;2022-09-09T07:32:27;19.20;73.60
70149;DHT22;57514;52.164;5.282;2022-09-09T07:37:22;19.50;82.60
70149;DHT22;57514;52.164;5.282;2022-09-09T07:39:51;19.00;88.40
70149;DHT22;57514;52.164;5.282;2022-09-09T07:42:18;21.30;87.70
70149;DHT22;57514;52.164;5.282;2022-09-09T07:44:45;18.70;88.40
70149;DHT22;57514;52.164;5.282;2022-09-09T07:47:14;18.40;86.60
70149;DHT22;57514;52.164;5.282;2022-09-09T07:49:44;21.60;77.10
70149;DHT22;57514;52.164;5.282;2022-09-09T07:52:17;18.90;77.80
70149;DHT22;57514;52.164;5.282;2022-09-09T07:57:18;20.10;86.10
70149;DHT22;57514;52.164;5.282;2022-09-09T07:59:50;19.80;91.30
70149;DHT22;57514;52.164;5.282;2022-09-09T08:02:17;19.70;89.70
70149;DHT22;57514;52.164;5.282;2022-09-09T08:07:13;17.10;84.50
70149;DHT22;57514;52.164;5.282;2022-09-09T08:09:47;18.80;91.70
70149;DHT22;57514;52.164;5.282;2022-09-09T08:12:34;17.10;84.30
70149;DHT22;57514;52.164;5.282;2022-09-09T08:17:32;17.50;83.30
70149;DHT22;57514;52.164;5.282;2022-09-09T08:20:03;18.20;80.30
70149;DHT22;57514;52.164;5.282;2022-09-09T08:22:31;19.60;92.30
70149;DHT22;57514;52.164;5.282;2022-09-09T08:29:54;17.90;92.00
70149;DHT22;57514;52.164;5.282;2022-09-09T08:32:23;19.50;92.40
70149;DHT22;57514;52.164;5.282;2022-09-09T08:37:22;16.70;90.00
70149;DHT22;57514;52.164;5.282;2022-09-09T08:45:59;18.10;83.40
70149;DHT22;57514;52.164;5.282;2022-09-09T08:51:31;18.40;82.10
70149;DHT22;57514;52.164;5.282;2022-09-09T08:54:02;18.50;81.50
70149;DHT22;57514;52.164;5.282;2022-09-09T08:56:32;17.30;91.70
70149;DHT22;57514;52.164;5.282;2022-09-09T08:59:02;17.40;90.60
70149;DHT22;57514;52.164;5.282;2022-09-09T09:10:34;18.30;79.00
70149;DHT22;57514;52.164;5.282;2022-09-09T09:13:18;18.80;90.50
70149;DHT22;57514;52.164;5.282;2022-09-09T09:15:57;17.40;91.80
70149;DHT22;57514;52.164;5.282;2022-09-09T09:18:26;18.30;92.00
70149;DHT22;57514;52.164;5.282;2022-09-09T09:23:57;17.60;91.90
70149;DHT22;57514;52.164;5.282;2022-09-09T09:26:31;18.50;80.80
70149;DHT22;57514;52.164;5.282;2022-09-09T09:31:32;17.30;84.50
70149;DHT22;57514;52.164;5.282;2022-09-09T09:36:58;18.40;79.10
70149;DHT22;57514;52.164;5.282;2022-09-09T09:39:32;18.30;80.90
70149;DHT22;57514;52.164;5.282;2022-09-09T09:44:53;19.60;85.10
70149;DHT22;57514;52.164;5.282;2022-09-09T09:47:22;18.30;82.90
70149;DHT22;57514;52.164;5.282;2022-09-09T09:50:19;18.20;91.80
70149;DHT22;57514;52.164;5.282;2022-09-09T09:52:57;19.10;92.00
70149;DHT22;57514;52.164;5.282;2022-09-09T09:55:28;18.00;80.40
70149;DHT22;57514;52.164;5.282;2022-09-09T09:58:04;17.70;81.90
70149;DHT22;57514;52.164;5.282;2022-09-09T10:00:32;16.40;84.80
70149;DHT22;57514;52.164;5.282;2022-09-09T10:03:25;16.70;93.50
70149;DHT22;57514;52.164;5.282;2022-09-09T10:13:43;17.40;85.90
70149;DHT22;57514;52.164;5.282;2022-09-09T10:16:46;17.30;85.10
70149;DHT22;57514;52.164;5.282;2022-09-09T10:19:35;17.10;94.70
70149;DHT22;57514;52.164;5.282;2022-09-09T10:54:58;20.30;95.00
70149;DHT22;57514;52.164;5.282;2022-09-09T10:57:40;19.60;93.90
70149;DHT22;57514;52.164;5.282;2022-09-09T11:00:20;19.00;87.50
70149;DHT22;57514;52.164;5.282;2022-09-09T11:02:53;20.40;94.50
70149;DHT22;57514;52.164;5.282;2022-09-09T11:05:38;18.40;89.60
70149;DHT22;57514;52.164;5.282;2022-09-09T11:08:21;20.30;94.80
70149;DHT22;57514;52.164;5.282;2022-09-09T11:11:02;20.30;85.30
70149;DHT22;57514;52.164;5.282;2022-09-09T11:18:59;20.40;80.40
70149;DHT22;57514;52.164;5.282;2022-09-09T11:21:37;21.10;83.70
70149;DHT22;57514;52.164;5.282;2022-09-09T11:24:15;19.90;80.10
70149;DHT22;57514;52.164;5.282;2022-09-09T11:26:55;19.90;79.50
70149;DHT22;57514;52.164;5.282;2022-09-09T11:32:39;21.30;92.50
70149;DHT22;57514;52.164;5.282;2022-09-09T11:37:54;19.70;91.70
70149;DHT22;57514;52.164;5.282;2022-09-09T11:40:26;20.00;79.50
70149;DHT22;57514;52.164;5.282;2022-09-09T11:43:09;19.90;78.80
70149;DHT22;57514;52.164;5.282;2022-09-09T11:45:40;20.00;81.00
70149;DHT22;57514;52.164;5.282;2022-09-09T11:48:29;20.50;87.00
70149;DHT22;57514;52.164;5.282;2022-09-09T11:50:59;20.10;79.10
70149;DHT22;57514;52.164;5.282;2022-09-09T11:56:08;19.90;89.80
70149;DHT22;57514;52.164;5.282;2022-09-09T11:58:44;19.20;77.60
70149;DHT22;57514;52.164;5.282;2022-09-09T12:01:34;18.70;80.70
70149;DHT22;57514;52.164;5.282;2022-09-09T12:06:31;17.90;83.60
70149;DHT22;57514;52.164;5.282;2022-09-09T12:09:08;16.50;90.10
70149;DHT22;57514;52.164;5.282;2022-09-09T12:14:19;17.70;84.30
70149;DHT22;57514;52.164;5.282;2022-09-09T12:16:46;18.70;94.70
70149;DHT22;57514;52.164;5.282;2022-09-09T12:19:21;17.70;85.40
70149;DHT22;57514;52.164;5.282;2022-09-09T12:22:11;17.90;85.40
70149;DHT22;57514;52.164;5.282;2022-09-09T12:24:52;17.50;86.70
70149;DHT22;57514;52.164;5.282;2022-09-09T12:35:43;17.60;88.80
70149;DHT22;57514;52.164;5.282;2022-09-09T12:38:05;19.20;96.30
70149;DHT22;57514;52.164;5.282;2022-09-09T12:40:34;17.00;92.70
70149;DHT22;57514;52.164;5.282;2022-09-09T12:43:21;18.00;86.80
70149;DHT22;57514;52.164;5.282;2022-09-09T12:45:51;18.30;89.30
70149;DHT22;57514;52.164;5.282;2022-09-09T12:48:41;18.50;90.10
70149;DHT22;57514;52.164;5.282;2022-09-09T12:51:27;19.00;88.30
70149;DHT22;57514;52.164;5.282;2022-09-09T12:53:55;18.40;88.60
70149;DHT22;57514;52.164;5.282;2022-09-09T12:56:24;18.30;92.90
70149;DHT22;57514;52.164;5.282;2022-09-09T12:58:55;19.30;90.70
70149;DHT22;57514;52.164;5.282;2022-09-09T13:01:27;20.50;82.40
70149;DHT22;57514;52.164;5.282;2022-09-09T13:03:55;19.50;88.60
70149;DHT22;57514;52.164;5.282;2022-09-09T13:08:59;21.90;91.80
70149;DHT22;57514;52.164;5.282;2022-09-09T13:11:35;20.30;80.10
70149;DHT22;57514;52.164;5.282;2022-09-09T13:14:02;20.40;80.50
70149;DHT22;57514;52.164;5.282;2022-09-09T13:16:31;19.90;80.20
70149;DHT22;57514;52.164;5.282;2022-09-09T13:19:31;19.70;78.90
70149;DHT22;57514;52.164;5.282;2022-09-09T13:24:31;19.60;79.10
70149;DHT22;57514;52.164;5.282;2022-09-09T13:27:04;19.50;81.00
70149;DHT22;57514;52.164;5.282;2022-09-09T13:29:32;19.80;85.60
70149;DHT22;57514;52.164;5.282;2022-09-09T13:32:12;19.50;79.00
70149;DHT22;57514;52.164;5.282;2022-09-09T13:37:21;18.60;81.40
70149;DHT22;57514;52.164;5.282;2022-09-09T13:39:53;18.50;81.20
70149;DHT22;57514;52.164;5.282;2022-09-09T13:42:29;18.50;82.90
70149;DHT22;57514;52.164;5.282;2022-09-09T13:44:57;18.60;85.80
70149;DHT22;57514;52.164;5.282;2022-09-09T13:47:33;20.10;85.10
70149;DHT22;57514;52.164;5.282;2022-09-09T13:50:19;18.90;83.80
70149;DHT22;57514;52.164;5.282;2022-09-09T13:52:48;20.40;87.30
70149;DHT22;57514;52.164;5.282;2022-09-09T13:57:54;18.90;83.30
70149;DHT22;57514;52.164;5.282;2022-09-09T14:00:22;19.00;85.00
70149;DHT22;57514;52.164;5.282;2022-09-09T14:02:51;19.10;84.80
70149;DHT22;57514;52.164;5.282;2022-09-09T14:05:18;19.10;84.30
70149;DHT22;57514;52.164;5.282;2022-09-09T14:20:08;18.60;82.60
70149;DHT22;57514;52.164;5.282;2022-09-09T14:22:36;17.10;83.20
70149;DHT22;57514;52.164;5.282;2022-09-09T14:32:27;18.70;91.30
70149;DHT22;57514;52.164;5.282;2022-09-09T14:39:48;19.50;95.00
70149;DHT22;57514;52.164;5.282;2022-09-09T14:42:17;16.80;92.60
70149;DHT22;57514;52.164;5.282;2022-09-09T14:44:44;18.20;91.50
70149;DHT22;57514;52.164;5.282;2022-09-09T15:07:00;19.10;87.40
70149;DHT22;57514;52.164;5.282;2022-09-09T15:09:27;20.80;95.10
70149;DHT22;57514;52.164;5.282;2022-09-09T15:11:56;17.80;93.30
70149;DHT22;57514;52.164;5.282;2022-09-09T15:24:15;20.60;94.60
70149;DHT22;57514;52.164;5.282;2022-09-09T15:34:05;19.00;86.20
70149;DHT22;57514;52.164;5.282;2022-09-09T15:36:41;17.70;86.20
70149;DHT22;57514;52.164;5.282;2022-09-09T15:39:11;18.80;85.90
70149;DHT22;57514;52.164;5.282;2022-09-09T15:41:39;18.80;85.50
70149;DHT22;57514;52.164;5.282;2022-09-09T15:44:06;19.70;90.30
70149;DHT22;57514;52.164;5.282;2022-09-09T15:46:35;20.00;91.20
70149;DHT22;57514;52.164;5.282;2022-09-09T15:49:17;18.60;84.20
70149;DHT22;57514;52.164;5.282;2022-09-09T15:51:46;18.60;86.20
70149;DHT22;57514;52.164;5.282;2022-09-09T15:54:17;18.70;84.80
70149;DHT22;57514;52.164;5.282;2022-09-09T15:56:46;18.70;86.10
70149;DHT22;57514;52.164;5.282;2022-09-09T15:59:13;18.10;90.40
70149;DHT22;57514;52.164;5.282;2022-09-09T16:09:04;18.70;86.30
70149;DHT22;57514;52.164;5.282;2022-09-09T16:11:34;18.80;86.00
70149;DHT22;57514;52.164;5.282;2022-09-09T16:18:59;18.50;90.60
70149;DHT22;57514;52.164;5.282;2022-09-09T16:21:37;18.90;85.50
70149;DHT22;57514;52.164;5.282;2022-09-09T16:24:07;18.80;84.80
70149;DHT22;57514;52.164;5.282;2022-09-09T16:26:35;19.80;93.80
70149;DHT22;57514;52.164;5.282;2022-09-09T16:29:03;18.70;83.70
70149;DHT22;57514;52.164;5.282;2022-09-09T16:31:30;18.70;84.00
70149;DHT22;57514;52.164;5.282;2022-09-09T16:33:58;19.30;86.90
70149;DHT22;57514;52.164;5.282;2022-09-09T16:36:28;18.50;84.90
70149;DHT22;57514;52.164;5.282;2022-09-09T16:39:05;18.50;84.60
70149;DHT22;57514;52.164;5.282;2022-09-09T16:41:33;22.30;86.80
70149;DHT22;57514;52.164;5.282;2022-09-09T16:44:02;18.40;84.80
70149;DHT22;57514;52.164;5.282;2022-09-09T16:46:32;18.30;85.00
70149;DHT22;57514;52.164;5.282;2022-09-09T16:49:00;18.30;84.90
70149;DHT22;57514;52.164;5.282;2022-09-09T16:51:29;18.30;85.10
70149;DHT22;57514;52.164;5.282;2022-09-09T16:53:58;18.30;84.90
70149;DHT22;57514;52.164;5.282;2022-09-09T16:56:28;18.30;85.10
70149;DHT22;57514;52.164;5.282;2022-09-09T16:58:57;18.30;85.00
70149;DHT22;57514;52.164;5.282;2022-09-09T17:01:25;18.90;90.00
70149;DHT22;57514;52.164;5.282;2022-09-09T17:03:59;18.20;85.00
70149;DHT22;57514;52.164;5.282;2022-09-09T17:06:31;17.20;93.50
70149;DHT22;57514;52.164;5.282;2022-09-09T17:09:03;17.20;88.90
70149;DHT22;57514;52.164;5.282;2022-09-09T17:13:58;18.10;85.50
70149;DHT22;57514;52.164;5.282;2022-09-09T17:16:29;18.40;88.70
70149;DHT22;57514;52.164;5.282;2022-09-09T17:18:57;16.90;89.40
70149;DHT22;57514;52.164;5.282;2022-09-09T17:21:26;18.00;85.70
70149;DHT22;57514;52.164;5.282;2022-09-09T17:23:54;18.00;85.90
70149;DHT22;57514;52.164;5.282;2022-09-09T17:26:23;17.50;92.60
70149;DHT22;57514;52.164;5.282;2022-09-09T17:31:25;16.80;92.10
70149;DHT22;57514;52.164;5.282;2022-09-09T17:33:52;16.70;93.80
70149;DHT22;57514;52.164;5.282;2022-09-09T17:36:26;18.00;86.00
70149;DHT22;57514;52.164;5.282;2022-09-09T17:38:53;19.10;86.30
70149;DHT22;57514;52.164;5.282;2022-09-09T17:41:26;16.60;93.80
70149;DHT22;57514;52.164;5.282;2022-09-09T17:46:25;17.90;86.40
70149;DHT22;57514;52.164;5.282;2022-09-09T17:48:56;17.90;86.70
70149;DHT22;57514;52.164;5.282;2022-09-09T17:51:25;18.10;92.00
70149;DHT22;57514;52.164;5.282;2022-09-09T17:54:11;17.80;87.50
70149;DHT22;57514;52.164;5.282;2022-09-09T17:56:40;17.90;86.90
70149;DHT22;57514;52.164;5.282;2022-09-09T17:59:12;17.80;86.70
70149;DHT22;57514;52.164;5.282;2022-09-09T18:01:41;17.80;86.80
70149;DHT22;57514;52.164;5.282;2022-09-09T18:04:11;18.90;89.60
70149;DHT22;57514;52.164;5.282;2022-09-09T18:06:46;17.60;85.70
70149;DHT22;57514;52.164;5.282;2022-09-09T18:09:19;17.60;87.70
70149;DHT22;57514;52.164;5.282;2022-09-09T18:11:51;17.50;87.90
70149;DHT22;57514;52.164;5.282;2022-09-09T18:14:22;16.10;92.30
70149;DHT22;57514;52.164;5.282;2022-09-09T18:24:16;18.70;93.30
70149;DHT22;57514;52.164;5.282;2022-09-09T18:26:43;18.80;92.90
70149;DHT22;57514;52.164;5.282;2022-09-09T18:29:14;16.90;89.30
70149;DHT22;57514;52.164;5.282;2022-09-09T18:34:11;17.30;90.10
70149;DHT22;57514;52.164;5.282;2022-09-09T18:36:45;18.50;91.20
70149;DHT22;57514;52.164;5.282;2022-09-09T18:39:16;18.60;92.50
70149;DHT22;57514;52.164;5.282;2022-09-09T18:41:46;18.20;91.40
70149;DHT22;57514;52.164;5.282;2022-09-09T18:44:18;17.20;90.40
70149;DHT22;57514;52.164;5.282;2022-09-09T18:46:47;17.10;92.20
70149;DHT22;57514;52.164;5.282;2022-09-09T18:51:44;16.20;96.10
70149;DHT22;57514;52.164;5.282;2022-09-09T18:54:18;18.50;93.30
70149;DHT22;57514;52.164;5.282;2022-09-09T18:56:48;17.20;90.90
70149;DHT22;57514;52.164;5.282;2022-09-09T18:59:18;17.10;90.30
70149;DHT22;57514;52.164;5.282;2022-09-09T19:01:48;17.10;90.20
70149;DHT22;57514;52.164;5.282;2022-09-09T19:06:45;16.80;90.20
70149;DHT22;57514;52.164;5.282;2022-09-09T19:09:15;16.90;90.20
70149;DHT22;57514;52.164;5.282;2022-09-09T19:11:43;17.60;91.00
70149;DHT22;57514;52.164;5.282;2022-09-09T19:14:12;15.40;92.30
70149;DHT22;57514;52.164;5.282;2022-09-09T19:19:13;16.80;90.50
70149;DHT22;57514;52.164;5.282;2022-09-09T19:24:12;16.70;90.60
70149;DHT22;57514;52.164;5.282;2022-09-09T19:26:44;17.10;92.90
70149;DHT22;57514;52.164;5.282;2022-09-09T19:29:17;16.70;90.70
70149;DHT22;57514;52.164;5.282;2022-09-09T19:31:47;16.80;90.70
70149;DHT22;57514;52.164;5.282;2022-09-09T19:41:56;15.40;95.10
70149;DHT22;57514;52.164;5.282;2022-09-09T19:54:12;15.60;96.50
70149;DHT22;57514;52.164;5.282;2022-09-09T19:56:40;16.10;92.00
70149;DHT22;57514;52.164;5.282;2022-09-09T19:59:09;16.80;90.80
70149;DHT22;57514;52.164;5.282;2022-09-09T20:01:41;16.70;90.70
70149;DHT22;57514;52.164;5.282;2022-09-09T20:04:11;16.80;90.70
70149;DHT22;57514;52.164;5.282;2022-09-09T20:06:41;16.60;90.70
70149;DHT22;57514;52.164;5.282;2022-09-09T20:09:15;17.50;95.40
70149;DHT22;57514;52.164;5.282;2022-09-09T20:11:44;16.90;90.80
70149;DHT22;57514;52.164;5.282;2022-09-09T20:14:11;16.70;90.30
70149;DHT22;57514;52.164;5.282;2022-09-09T20:16:38;17.80;91.40
70149;DHT22;57514;52.164;5.282;2022-09-09T20:19:06;17.60;92.60
70149;DHT22;57514;52.164;5.282;2022-09-09T20:21:35;16.60;90.90
70149;DHT22;57514;52.164;5.282;2022-09-09T20:24:07;16.60;91.50
70149;DHT22;57514;52.164;5.282;2022-09-09T20:29:10;16.60;91.00
70149;DHT22;57514;52.164;5.282;2022-09-09T20:31:42;16.50;91.00
70149;DHT22;57514;52.164;5.282;2022-09-09T20:34:14;16.50;91.10
70149;DHT22;57514;52.164;5.282;2022-09-09T20:39:17;17.70;97.40
70149;DHT22;57514;52.164;5.282;2022-09-09T20:41:45;16.50;90.70
70149;DHT22;57514;52.164;5.282;2022-09-09T20:44:17;15.40;95.80
70149;DHT22;57514;52.164;5.282;2022-09-09T20:46:47;16.40;91.20
70149;DHT22;57514;52.164;5.282;2022-09-09T20:49:16;16.40;91.40
70149;DHT22;57514;52.164;5.282;2022-09-09T20:54:13;17.70;97.60
70149;DHT22;57514;52.164;5.282;2022-09-09T20:56:42;16.10;97.30
70149;DHT22;57514;52.164;5.282;2022-09-09T20:59:22;16.40;91.40
70149;DHT22;57514;52.164;5.282;2022-09-09T21:04:17;16.50;91.60
70149;DHT22;57514;52.164;5.282;2022-09-09T21:06:46;16.30;91.60
70149;DHT22;57514;52.164;5.282;2022-09-09T21:09:13;17.70;94.30
70149;DHT22;57514;52.164;5.282;2022-09-09T21:23:57;16.50;91.10
70149;DHT22;57514;52.164;5.282;2022-09-09T21:33:57;15.00;91.80
70149;DHT22;57514;52.164;5.282;2022-09-09T21:36:24;16.40;91.90
70149;DHT22;57514;52.164;5.282;2022-09-09T21:38:51;16.90;93.00
70149;DHT22;57514;52.164;5.282;2022-09-09T21:46:14;15.80;92.60
70149;DHT22;57514;52.164;5.282;2022-09-09T21:48:42;16.90;92.00
70149;DHT22;57514;52.164;5.282;2022-09-09T21:51:12;16.00;95.00
70149;DHT22;57514;52.164;5.282;2022-09-09T21:56:10;16.20;91.70
70149;DHT22;57514;52.164;5.282;2022-09-09T21:58:37;17.80;92.00
70149;DHT22;57514;52.164;5.282;2022-09-09T22:01:12;16.20;91.20
70149;DHT22;57514;52.164;5.282;2022-09-09T22:06:10;17.40;95.60
70149;DHT22;57514;52.164;5.282;2022-09-09T22:11:10;16.10;91.90
70149;DHT22;57514;52.164;5.282;2022-09-09T22:13:37;17.50;98.20
70149;DHT22;57514;52.164;5.282;2022-09-09T22:16:09;16.10;91.90
70149;DHT22;57514;52.164;5.282;2022-09-09T22:18:36;15.50;94.30
70149;DHT22;57514;52.164;5.282;2022-09-09T22:21:14;16.20;92.00
70149;DHT22;57514;52.164;5.282;2022-09-09T22:26:16;14.90;95.10
70149;DHT22;57514;52.164;5.282;2022-09-09T22:36:04;15.20;94.30
70149;DHT22;57514;52.164;5.282;2022-09-09T22:38:31;17.20;95.00
70149;DHT22;57514;52.164;5.282;2022-09-09T22:41:01;15.10;92.00
70149;DHT22;57514;52.164;5.282;2022-09-09T22:43:29;16.10;91.90
70149;DHT22;57514;52.164;5.282;2022-09-09T22:46:02;16.00;91.10
70149;DHT22;57514;52.164;5.282;2022-09-09T22:48:33;16.00;91.20
70149;DHT22;57514;52.164;5.282;2022-09-09T22:51:05;15.30;95.30
70149;DHT22;57514;52.164;5.282;2022-09-09T22:53:33;16.40;92.80
70149;DHT22;57514;52.164;5.282;2022-09-09T22:56:03;15.90;92.20
70149;DHT22;57514;52.164;5.282;2022-09-09T22:58:32;16.00;92.40
70149;DHT22;57514;52.164;5.282;2022-09-09T23:01:00;16.30;92.00
70149;DHT22;57514;52.164;5.282;2022-09-09T23:06:00;16.10;92.30
70149;DHT22;57514;52.164;5.282;2022-09-09T23:08:33;16.50;97.10
70149;DHT22;57514;52.164;5.282;2022-09-09T23:11:06;16.10;91.50
70149;DHT22;57514;52.164;5.282;2022-09-09T23:13:41;16.20;91.50
70149;DHT22;57514;52.164;5.282;2022-09-09T23:16:13;16.20;92.20
70149;DHT22;57514;52.164;5.282;2022-09-09T23:18:40;16.20;95.20
70149;DHT22;57514;52.164;5.282;2022-09-09T23:21:09;16.80;93.60
70149;DHT22;57514;52.164;5.282;2022-09-09T23:23:37;16.20;91.80
70149;DHT22;57514;52.164;5.282;2022-09-09T23:28:33;16.40;92.00
70149;DHT22;57514;52.164;5.282;2022-09-09T23:31:01;16.90;96.50
70149;DHT22;57514;52.164;5.282;2022-09-09T23:36:05;16.50;91.40
70149;DHT22;57514;52.164;5.282;2022-09-09T23:38:37;17.70;93.70
70149;DHT22;57514;52.164;5.282;2022-09-09T23:41:07;14.90;95.10
70149;DHT22;57514;52.164;5.282;2022-09-09T23:43:35;15.40;91.80
70149;DHT22;57514;52.164;5.282;2022-09-09T23:46:12;16.40;92.10
70149;DHT22;57514;52.164;5.282;2022-09-09T23:48:40;16.40;91.70
70149;DHT22;57514;52.164;5.282;2022-09-09T23:51:11;16.80;92.10
70149;DHT22;57514;52.164;5.282;2022-09-09T23:53:44;16.40;91.80
